sensor_id;sensor_type;location;lat;lon;timestamp;temperature;humidity
5697;DHT22;2873;50.966;7.210;2022-11-12T00:00:13;9.70;99.90
5697;DHT22;2873;50.966;7.210;2022-11-12T00:02:39;9.50;99.90
5697;DHT22;2873;50.966;7.210;2022-11-12T00:05:05;9.50;99.90
5697;DHT22;2873;50.966;7.210;2022-11-12T00:07:30;9.50;99.90
5697;DHT22;2873;50.966;7.210;2022-11-12T00:09:56;9.40;99.90
5697;DHT22;2873;50.966;7.210;2022-11-12T00:12:21;9.40;99.90
5697;DHT22;2873;50.966;7.210;2022-11-12T00:14:47;9.40;99.90
5697;DHT22;2873;50.966;7.210;2022-11-12T00:17:12;9.40;99.90
5697;DHT22;2873;50.966;7.210;2022-11-12T00:19:38;9.30;99.90
5697;DHT22;2873;50.966;7.210;2022-11-12T00:22:03;9.30;99.90
5697;DHT22;2873;50.966;7.210;2022-11-12T00:24:29;9.30;99.90
5697;DHT22;2873;50.966;7.210;2022-11-12T00:26:54;9.20;99.90
5697;DHT22;2873;50.966;7.210;2022-11-12T00:29:20;9.20;99.90
5697;DHT22;2873;50.966;7.210;2022-11-12T00:31:45;9.20;99.90
5697;DHT22;2873;50.966;7.210;2022-11-12T00:34:11;9.20;99.90
5697;DHT22;2873;50.966;7.210;2022-11-12T00:36:36;9.20;99.90
5697;DHT22;2873;50.966;7.210;2022-11-12T00:39:03;9.20;99.90
5697;DHT22;2873;50.966;7.210;2022-11-12T00:41:28;9.10;99.90
5697;DHT22;2873;50.966;7.210;2022-11-12T00:43:54;9.10;99.90
5697;DHT22;2873;50.966;7.210;2022-11-12T00:46:20;9.10;99.90
5697;DHT22;2873;50.966;7.210;2022-11-12T00:48:45;9.10;99.90
5697;DHT22;2873;50.966;7.210;2022-11-12T00:51:11;9.10;99.90
5697;DHT22;2873;50.966;7.210;2022-11-12T00:53:36;9.10;99.90
5697;DHT22;2873;50.966;7.210;2022-11-12T00:56:05;9.00;99.90
5697;DHT22;2873;50.966;7.210;2022-11-12T00:58:33;9.00;99.90
5697;DHT22;2873;50.966;7.210;2022-11-12T01:01:10;9.00;99.90
5697;DHT22;2873;50.966;7.210;2022-11-12T01:03:37;9.00;99.90
5697;DHT22;2873;50.966;7.210;2022-11-12T01:06:12;9.00;99.90
5697;DHT22;2873;50.966;7.210;2022-11-12T01:08:38;9.00;99.90
5697;DHT22;2873;50.966;7.210;2022-11-12T01:11:11;9.00;99.90
5697;DHT22;2873;50.966;7.210;2022-11-12T01:13:38;8.90;99.90
5697;DHT22;2873;50.966;7.210;2022-11-12T01:16:09;8.90;99.90
5697;DHT22;2873;50.966;7.210;2022-11-12T01:18:35;9.00;99.90
5697;DHT22;2873;50.966;7.210;2022-11-12T01:21:02;8.90;99.90
5697;DHT22;2873;50.966;7.210;2022-11-12T01:23:30;8.90;99.90
5697;DHT22;2873;50.966;7.210;2022-11-12T01:25:56;8.90;99.90
5697;DHT22;2873;50.966;7.210;2022-11-12T01:28:21;8.90;99.90
5697;DHT22;2873;50.966;7.210;2022-11-12T01:30:47;8.90;99.90
5697;DHT22;2873;50.966;7.210;2022-11-12T01:33:13;8.90;99.90
5697;DHT22;2873;50.966;7.210;2022-11-12T01:35:38;8.80;99.90
5697;DHT22;2873;50.966;7.210;2022-11-12T01:38:04;8.90;99.90
5697;DHT22;2873;50.966;7.210;2022-11-12T01:40:31;8.90;99.90
5697;DHT22;2873;50.966;7.210;2022-11-12T01:42:57;8.90;99.90
5697;DHT22;2873;50.966;7.210;2022-11-12T01:45:22;8.90;99.90
5697;DHT22;2873;50.966;7.210;2022-11-12T01:47:49;8.90;99.90
5697;DHT22;2873;50.966;7.210;2022-11-12T01:50:19;8.80;99.90
5697;DHT22;2873;50.966;7.210;2022-11-12T01:52:49;8.80;99.90
5697;DHT22;2873;50.966;7.210;2022-11-12T01:55:19;8.80;99.90
5697;DHT22;2873;50.966;7.210;2022-11-12T01:57:50;8.80;99.90
5697;DHT22;2873;50.966;7.210;2022-11-12T02:00:16;8.80;99.90
5697;DHT22;2873;50.966;7.210;2022-11-12T02:02:45;8.80;99.90
5697;DHT22;2873;50.966;7.210;2022-11-12T02:05:12;8.80;99.90
5697;DHT22;2873;50.966;7.210;2022-11-12T02:07:40;8.70;99.90
5697;DHT22;2873;50.966;7.210;2022-11-12T02:10:07;8.60;99.90
5697;DHT22;2873;50.966;7.210;2022-11-12T02:12:34;8.70;99.90
5697;DHT22;2873;50.966;7.210;2022-11-12T02:15:18;8.50;99.90
5697;DHT22;2873;50.966;7.210;2022-11-12T02:17:44;8.50;99.90
5697;DHT22;2873;50.966;7.210;2022-11-12T02:20:13;8.50;99.90
5697;DHT22;2873;50.966;7.210;2022-11-12T02:22:39;8.50;99.90
5697;DHT22;2873;50.966;7.210;2022-11-12T02:25:05;8.50;99.90
5697;DHT22;2873;50.966;7.210;2022-11-12T02:27:31;8.40;99.90
5697;DHT22;2873;50.966;7.210;2022-11-12T02:29:56;8.40;99.90
5697;DHT22;2873;50.966;7.210;2022-11-12T02:32:22;8.30;99.90
5697;DHT22;2873;50.966;7.210;2022-11-12T02:34:47;8.30;99.90
5697;DHT22;2873;50.966;7.210;2022-11-12T02:37:13;8.20;99.90
5697;DHT22;2873;50.966;7.210;2022-11-12T02:39:38;8.20;99.90
5697;DHT22;2873;50.966;7.210;2022-11-12T02:42:04;8.20;99.90
5697;DHT22;2873;50.966;7.210;2022-11-12T02:44:30;8.30;99.90
5697;DHT22;2873;50.966;7.210;2022-11-12T02:46:56;8.20;99.90
5697;DHT22;2873;50.966;7.210;2022-11-12T02:49:22;8.20;99.90
5697;DHT22;2873;50.966;7.210;2022-11-12T02:51:47;8.30;99.90
5697;DHT22;2873;50.966;7.210;2022-11-12T02:54:13;8.10;99.90
5697;DHT22;2873;50.966;7.210;2022-11-12T02:56:38;8.10;99.90
5697;DHT22;2873;50.966;7.210;2022-11-12T02:59:04;8.10;99.90
5697;DHT22;2873;50.966;7.210;2022-11-12T03:01:29;8.10;99.90
5697;DHT22;2873;50.966;7.210;2022-11-12T03:03:55;8.10;99.90
5697;DHT22;2873;50.966;7.210;2022-11-12T03:06:20;8.10;99.90
5697;DHT22;2873;50.966;7.210;2022-11-12T03:08:46;8.10;99.90
5697;DHT22;2873;50.966;7.210;2022-11-12T03:11:14;8.10;99.90
5697;DHT22;2873;50.966;7.210;2022-11-12T03:13:40;8.10;99.90
5697;DHT22;2873;50.966;7.210;2022-11-12T03:16:06;8.00;99.90
5697;DHT22;2873;50.966;7.210;2022-11-12T03:18:32;7.90;99.90
5697;DHT22;2873;50.966;7.210;2022-11-12T03:20:57;7.90;99.90
5697;DHT22;2873;50.966;7.210;2022-11-12T03:23:25;7.90;99.90
5697;DHT22;2873;50.966;7.210;2022-11-12T03:25:51;7.90;99.90
5697;DHT22;2873;50.966;7.210;2022-11-12T03:28:16;7.90;99.90
5697;DHT22;2873;50.966;7.210;2022-11-12T03:30:42;7.90;99.90
5697;DHT22;2873;50.966;7.210;2022-11-12T03:33:09;7.90;99.90
5697;DHT22;2873;50.966;7.210;2022-11-12T03:35:35;7.80;99.90
5697;DHT22;2873;50.966;7.210;2022-11-12T03:38:01;7.80;99.90
5697;DHT22;2873;50.966;7.210;2022-11-12T03:40:28;7.80;99.90
5697;DHT22;2873;50.966;7.210;2022-11-12T03:42:54;7.80;99.90
5697;DHT22;2873;50.966;7.210;2022-11-12T03:45:21;7.80;99.90
5697;DHT22;2873;50.966;7.210;2022-11-12T03:47:48;7.80;99.90
5697;DHT22;2873;50.966;7.210;2022-11-12T03:50:15;7.80;99.90
5697;DHT22;2873;50.966;7.210;2022-11-12T03:52:50;7.80;99.90
5697;DHT22;2873;50.966;7.210;2022-11-12T03:55:18;7.80;99.90
5697;DHT22;2873;50.966;7.210;2022-11-12T03:57:44;7.80;99.90
5697;DHT22;2873;50.966;7.210;2022-11-12T04:00:12;7.80;99.90
5697;DHT22;2873;50.966;7.210;2022-11-12T04:02:37;7.80;99.90
5697;DHT22;2873;50.966;7.210;2022-11-12T04:05:04;7.80;99.90
5697;DHT22;2873;50.966;7.210;2022-11-12T04:08:23;7.70;99.90
5697;DHT22;2873;50.966;7.210;2022-11-12T04:11:00;7.80;99.90
5697;DHT22;2873;50.966;7.210;2022-11-12T04:13:26;7.70;99.90
5697;DHT22;2873;50.966;7.210;2022-11-12T04:15:59;7.70;99.90
5697;DHT22;2873;50.966;7.210;2022-11-12T04:18:45;7.70;99.90
5697;DHT22;2873;50.966;7.210;2022-11-12T04:21:32;7.70;99.90
5697;DHT22;2873;50.966;7.210;2022-11-12T04:24:27;7.60;99.90
5697;DHT22;2873;50.966;7.210;2022-11-12T04:27:22;7.50;99.90
5697;DHT22;2873;50.966;7.210;2022-11-12T04:29:49;7.50;99.90
5697;DHT22;2873;50.966;7.210;2022-11-12T04:32:35;7.40;99.90
5697;DHT22;2873;50.966;7.210;2022-11-12T04:35:02;7.30;99.90
5697;DHT22;2873;50.966;7.210;2022-11-12T04:37:29;7.30;99.90
5697;DHT22;2873;50.966;7.210;2022-11-12T04:40:10;7.20;99.90
5697;DHT22;2873;50.966;7.210;2022-11-12T04:42:54;7.20;99.90
5697;DHT22;2873;50.966;7.210;2022-11-12T04:45:40;7.20;99.90
5697;DHT22;2873;50.966;7.210;2022-11-12T04:48:06;7.10;99.90
5697;DHT22;2873;50.966;7.210;2022-11-12T04:50:31;7.00;99.90
5697;DHT22;2873;50.966;7.210;2022-11-12T04:52:57;7.00;99.90
5697;DHT22;2873;50.966;7.210;2022-11-12T04:55:23;6.90;99.90
5697;DHT22;2873;50.966;7.210;2022-11-12T04:57:48;6.90;99.90
5697;DHT22;2873;50.966;7.210;2022-11-12T05:00:14;6.90;99.90
5697;DHT22;2873;50.966;7.210;2022-11-12T05:02:39;6.90;99.90
5697;DHT22;2873;50.966;7.210;2022-11-12T05:05:05;6.80;99.90
5697;DHT22;2873;50.966;7.210;2022-11-12T05:07:32;6.80;99.90
5697;DHT22;2873;50.966;7.210;2022-11-12T05:09:57;6.80;99.90
5697;DHT22;2873;50.966;7.210;2022-11-12T05:12:23;6.80;99.90
5697;DHT22;2873;50.966;7.210;2022-11-12T05:14:48;6.80;99.90
5697;DHT22;2873;50.966;7.210;2022-11-12T05:17:14;6.80;99.90
5697;DHT22;2873;50.966;7.210;2022-11-12T05:19:39;6.80;99.90
5697;DHT22;2873;50.966;7.210;2022-11-12T05:22:05;6.70;99.90
5697;DHT22;2873;50.966;7.210;2022-11-12T05:24:35;6.80;99.90
5697;DHT22;2873;50.966;7.210;2022-11-12T05:27:01;6.80;99.90
5697;DHT22;2873;50.966;7.210;2022-11-12T05:29:27;6.90;99.90
5697;DHT22;2873;50.966;7.210;2022-11-12T05:31:53;6.80;99.90
5697;DHT22;2873;50.966;7.210;2022-11-12T05:34:18;6.80;99.90
5697;DHT22;2873;50.966;7.210;2022-11-12T05:36:44;6.80;99.90
5697;DHT22;2873;50.966;7.210;2022-11-12T05:39:09;6.70;99.90
5697;DHT22;2873;50.966;7.210;2022-11-12T05:41:35;6.60;99.90
5697;DHT22;2873;50.966;7.210;2022-11-12T05:44:01;6.60;99.90
5697;DHT22;2873;50.966;7.210;2022-11-12T05:46:26;6.60;99.90
5697;DHT22;2873;50.966;7.210;2022-11-12T05:48:52;6.50;99.90
5697;DHT22;2873;50.966;7.210;2022-11-12T05:51:17;6.50;99.90
5697;DHT22;2873;50.966;7.210;2022-11-12T05:53:43;6.40;99.90
5697;DHT22;2873;50.966;7.210;2022-11-12T05:56:09;6.40;99.90
5697;DHT22;2873;50.966;7.210;2022-11-12T05:58:35;6.40;99.90
5697;DHT22;2873;50.966;7.210;2022-11-12T06:01:01;6.40;99.90
5697;DHT22;2873;50.966;7.210;2022-11-12T06:03:28;6.40;99.90
5697;DHT22;2873;50.966;7.210;2022-11-12T06:05:54;6.40;99.90
5697;DHT22;2873;50.966;7.210;2022-11-12T06:08:19;6.40;99.90
5697;DHT22;2873;50.966;7.210;2022-11-12T06:10:49;6.30;99.90
5697;DHT22;2873;50.966;7.210;2022-11-12T06:13:15;6.40;99.90
5697;DHT22;2873;50.966;7.210;2022-11-12T06:15:41;6.40;99.90
5697;DHT22;2873;50.966;7.210;2022-11-12T06:18:07;6.50;99.90
5697;DHT22;2873;50.966;7.210;2022-11-12T06:20:33;6.50;99.90
5697;DHT22;2873;50.966;7.210;2022-11-12T06:22:58;6.50;99.90
5697;DHT22;2873;50.966;7.210;2022-11-12T06:25:24;6.60;99.90
5697;DHT22;2873;50.966;7.210;2022-11-12T06:27:49;6.70;99.90
5697;DHT22;2873;50.966;7.210;2022-11-12T06:30:15;6.70;99.90
5697;DHT22;2873;50.966;7.210;2022-11-12T06:32:41;6.80;99.90
5697;DHT22;2873;50.966;7.210;2022-11-12T06:35:07;6.80;99.90
5697;DHT22;2873;50.966;7.210;2022-11-12T06:37:32;6.90;99.90
5697;DHT22;2873;50.966;7.210;2022-11-12T06:39:58;6.90;99.90
5697;DHT22;2873;50.966;7.210;2022-11-12T06:42:23;7.00;99.90
5697;DHT22;2873;50.966;7.210;2022-11-12T06:44:49;7.00;99.90
5697;DHT22;2873;50.966;7.210;2022-11-12T06:47:16;7.00;99.90
5697;DHT22;2873;50.966;7.210;2022-11-12T06:49:42;7.00;99.90
5697;DHT22;2873;50.966;7.210;2022-11-12T06:52:07;7.10;99.90
5697;DHT22;2873;50.966;7.210;2022-11-12T06:54:32;7.20;99.90
5697;DHT22;2873;50.966;7.210;2022-11-12T06:56:58;7.20;99.90
5697;DHT22;2873;50.966;7.210;2022-11-12T06:59:24;7.30;99.90
5697;DHT22;2873;50.966;7.210;2022-11-12T07:01:49;7.40;99.90
5697;DHT22;2873;50.966;7.210;2022-11-12T07:04:15;7.40;99.90
5697;DHT22;2873;50.966;7.210;2022-11-12T07:06:40;7.40;99.90
5697;DHT22;2873;50.966;7.210;2022-11-12T07:09:06;7.50;99.90
5697;DHT22;2873;50.966;7.210;2022-11-12T07:11:32;7.50;99.90
5697;DHT22;2873;50.966;7.210;2022-11-12T07:13:57;7.60;99.90
5697;DHT22;2873;50.966;7.210;2022-11-12T07:16:23;7.60;99.90
5697;DHT22;2873;50.966;7.210;2022-11-12T07:18:49;7.60;99.90
5697;DHT22;2873;50.966;7.210;2022-11-12T07:21:16;7.70;99.90
5697;DHT22;2873;50.966;7.210;2022-11-12T07:23:42;7.80;99.90
5697;DHT22;2873;50.966;7.210;2022-11-12T07:26:22;7.80;99.90
5697;DHT22;2873;50.966;7.210;2022-11-12T07:28:50;7.90;99.90
5697;DHT22;2873;50.966;7.210;2022-11-12T07:31:17;7.90;99.90
5697;DHT22;2873;50.966;7.210;2022-11-12T07:33:44;8.00;99.90
5697;DHT22;2873;50.966;7.210;2022-11-12T07:36:11;8.00;99.90
5697;DHT22;2873;50.966;7.210;2022-11-12T07:38:39;8.10;99.90
5697;DHT22;2873;50.966;7.210;2022-11-12T07:41:06;8.20;99.90
5697;DHT22;2873;50.966;7.210;2022-11-12T07:43:34;8.20;99.90
5697;DHT22;2873;50.966;7.210;2022-11-12T07:46:04;8.20;99.90
5697;DHT22;2873;50.966;7.210;2022-11-12T07:48:30;8.30;99.90
5697;DHT22;2873;50.966;7.210;2022-11-12T07:53:27;8.50;99.90
5697;DHT22;2873;50.966;7.210;2022-11-12T07:55:54;8.50;99.90
5697;DHT22;2873;50.966;7.210;2022-11-12T07:58:22;8.70;99.90
5697;DHT22;2873;50.966;7.210;2022-11-12T08:00:48;8.80;99.90
5697;DHT22;2873;50.966;7.210;2022-11-12T08:03:13;9.00;99.90
5697;DHT22;2873;50.966;7.210;2022-11-12T08:05:39;9.10;99.90
5697;DHT22;2873;50.966;7.210;2022-11-12T08:08:04;9.20;99.90
5697;DHT22;2873;50.966;7.210;2022-11-12T08:10:30;9.30;99.90
5697;DHT22;2873;50.966;7.210;2022-11-12T08:12:55;9.30;99.90
5697;DHT22;2873;50.966;7.210;2022-11-12T08:15:21;9.50;99.90
5697;DHT22;2873;50.966;7.210;2022-11-12T08:17:47;9.40;99.90
5697;DHT22;2873;50.966;7.210;2022-11-12T08:20:12;9.60;99.90
5697;DHT22;2873;50.966;7.210;2022-11-12T08:22:39;9.90;99.90
5697;DHT22;2873;50.966;7.210;2022-11-12T08:25:04;10.20;99.90
5697;DHT22;2873;50.966;7.210;2022-11-12T08:27:30;10.50;99.90
5697;DHT22;2873;50.966;7.210;2022-11-12T08:29:56;10.80;99.90
5697;DHT22;2873;50.966;7.210;2022-11-12T08:32:21;11.10;99.90
5697;DHT22;2873;50.966;7.210;2022-11-12T08:34:47;11.20;99.90
5697;DHT22;2873;50.966;7.210;2022-11-12T08:37:13;11.60;99.90
5697;DHT22;2873;50.966;7.210;2022-11-12T08:39:38;12.10;99.90
5697;DHT22;2873;50.966;7.210;2022-11-12T08:42:04;12.80;99.90
5697;DHT22;2873;50.966;7.210;2022-11-12T08:44:29;13.10;99.90
5697;DHT22;2873;50.966;7.210;2022-11-12T08:46:55;13.20;99.90
5697;DHT22;2873;50.966;7.210;2022-11-12T08:49:21;13.40;99.90
5697;DHT22;2873;50.966;7.210;2022-11-12T08:51:46;14.00;99.90
5697;DHT22;2873;50.966;7.210;2022-11-12T08:54:12;14.30;99.90
5697;DHT22;2873;50.966;7.210;2022-11-12T08:56:37;14.70;99.90
5697;DHT22;2873;50.966;7.210;2022-11-12T08:59:04;15.10;99.90
5697;DHT22;2873;50.966;7.210;2022-11-12T09:01:29;15.30;99.90
5697;DHT22;2873;50.966;7.210;2022-11-12T09:03:55;15.60;99.90
5697;DHT22;2873;50.966;7.210;2022-11-12T09:06:23;15.60;99.90
5697;DHT22;2873;50.966;7.210;2022-11-12T09:08:49;15.90;99.90
5697;DHT22;2873;50.966;7.210;2022-11-12T09:11:14;16.40;99.90
5697;DHT22;2873;50.966;7.210;2022-11-12T09:13:40;16.60;99.90
5697;DHT22;2873;50.966;7.210;2022-11-12T09:16:07;16.70;99.90
5697;DHT22;2873;50.966;7.210;2022-11-12T09:18:33;17.00;99.90
5697;DHT22;2873;50.966;7.210;2022-11-12T09:21:05;17.40;99.90
5697;DHT22;2873;50.966;7.210;2022-11-12T09:23:32;17.40;99.90
5697;DHT22;2873;50.966;7.210;2022-11-12T09:25:58;17.60;99.90
5697;DHT22;2873;50.966;7.210;2022-11-12T09:28:24;18.10;99.90
5697;DHT22;2873;50.966;7.210;2022-11-12T09:30:51;18.60;99.90
5697;DHT22;2873;50.966;7.210;2022-11-12T09:33:20;18.90;99.90
5697;DHT22;2873;50.966;7.210;2022-11-12T09:35:46;19.30;99.90
5697;DHT22;2873;50.966;7.210;2022-11-12T09:38:12;20.10;99.90
5697;DHT22;2873;50.966;7.210;2022-11-12T09:43:36;22.10;99.90
5697;DHT22;2873;50.966;7.210;2022-11-12T09:46:22;23.00;99.90
5697;DHT22;2873;50.966;7.210;2022-11-12T09:48:55;23.60;99.90
5697;DHT22;2873;50.966;7.210;2022-11-12T09:51:25;24.20;99.90
5697;DHT22;2873;50.966;7.210;2022-11-12T09:53:54;25.00;99.90
5697;DHT22;2873;50.966;7.210;2022-11-12T09:56:21;25.60;99.90
5697;DHT22;2873;50.966;7.210;2022-11-12T09:58:48;25.40;99.90
5697;DHT22;2873;50.966;7.210;2022-11-12T10:02:01;25.40;99.90
5697;DHT22;2873;50.966;7.210;2022-11-12T10:06:34;25.00;99.90
5697;DHT22;2873;50.966;7.210;2022-11-12T10:09:12;25.00;99.90
5697;DHT22;2873;50.966;7.210;2022-11-12T10:20:17;24.20;99.90
5697;DHT22;2873;50.966;7.210;2022-11-12T10:23:18;24.40;99.90
5697;DHT22;2873;50.966;7.210;2022-11-12T10:25:37;24.70;99.90
5697;DHT22;2873;50.966;7.210;2022-11-12T10:28:27;25.40;99.90
5697;DHT22;2873;50.966;7.210;2022-11-12T10:30:56;25.60;99.90
5697;DHT22;2873;50.966;7.210;2022-11-12T10:33:22;25.40;99.90
5697;DHT22;2873;50.966;7.210;2022-11-12T10:35:49;25.30;99.90
5697;DHT22;2873;50.966;7.210;2022-11-12T10:38:21;25.00;99.90
5697;DHT22;2873;50.966;7.210;2022-11-12T10:40:48;25.20;99.90
5697;DHT22;2873;50.966;7.210;2022-11-12T10:45:39;25.60;99.90
5697;DHT22;2873;50.966;7.210;2022-11-12T10:48:26;25.70;99.10
5697;DHT22;2873;50.966;7.210;2022-11-12T10:50:53;25.70;99.30
5697;DHT22;2873;50.966;7.210;2022-11-12T10:53:38;25.40;98.90
5697;DHT22;2873;50.966;7.210;2022-11-12T11:01:43;24.60;99.20
5697;DHT22;2873;50.966;7.210;2022-11-12T11:04:24;24.70;99.70
5697;DHT22;2873;50.966;7.210;2022-11-12T11:07:15;24.60;99.50
5697;DHT22;2873;50.966;7.210;2022-11-12T11:09:54;24.40;99.90
5697;DHT22;2873;50.966;7.210;2022-11-12T11:12:32;24.40;99.90
5697;DHT22;2873;50.966;7.210;2022-11-12T11:15:19;24.70;99.90
5697;DHT22;2873;50.966;7.210;2022-11-12T11:17:45;24.60;99.90
5697;DHT22;2873;50.966;7.210;2022-11-12T11:20:23;24.80;99.90
5697;DHT22;2873;50.966;7.210;2022-11-12T11:22:55;24.80;99.70
5697;DHT22;2873;50.966;7.210;2022-11-12T11:25:28;24.70;99.70
5697;DHT22;2873;50.966;7.210;2022-11-12T11:28:10;24.30;99.70
5697;DHT22;2873;50.966;7.210;2022-11-12T11:30:51;24.10;99.90
5697;DHT22;2873;50.966;7.210;2022-11-12T11:36:59;22.80;99.90
5697;DHT22;2873;50.966;7.210;2022-11-12T11:44:39;23.90;99.90
5697;DHT22;2873;50.966;7.210;2022-11-12T11:47:15;24.50;99.90
5697;DHT22;2873;50.966;7.210;2022-11-12T11:53:14;25.00;99.90
5697;DHT22;2873;50.966;7.210;2022-11-12T11:55:54;25.60;99.90
5697;DHT22;2873;50.966;7.210;2022-11-12T11:59:03;25.60;99.20
5697;DHT22;2873;50.966;7.210;2022-11-12T12:04:05;25.80;99.10
5697;DHT22;2873;50.966;7.210;2022-11-12T12:06:38;25.80;98.40
5697;DHT22;2873;50.966;7.210;2022-11-12T12:20:54;25.30;99.00
5697;DHT22;2873;50.966;7.210;2022-11-12T12:25:56;25.10;98.70
5697;DHT22;2873;50.966;7.210;2022-11-12T12:28:34;24.80;98.50
5697;DHT22;2873;50.966;7.210;2022-11-12T12:31:06;24.60;98.50
5697;DHT22;2873;50.966;7.210;2022-11-12T12:36:14;24.40;99.00
5697;DHT22;2873;50.966;7.210;2022-11-12T12:38:51;24.40;99.00
5697;DHT22;2873;50.966;7.210;2022-11-12T12:41:23;24.30;98.50
5697;DHT22;2873;50.966;7.210;2022-11-12T12:43:55;24.00;98.90
5697;DHT22;2873;50.966;7.210;2022-11-12T12:46:25;24.00;98.80
5697;DHT22;2873;50.966;7.210;2022-11-12T12:48:53;24.20;98.70
5697;DHT22;2873;50.966;7.210;2022-11-12T12:51:20;24.30;98.90
5697;DHT22;2873;50.966;7.210;2022-11-12T12:53:45;24.50;99.00
5697;DHT22;2873;50.966;7.210;2022-11-12T12:58:42;24.20;98.30
5697;DHT22;2873;50.966;7.210;2022-11-12T13:03:59;24.10;98.10
5697;DHT22;2873;50.966;7.210;2022-11-12T13:19:44;24.50;96.80
5697;DHT22;2873;50.966;7.210;2022-11-12T13:32:42;24.30;97.60
5697;DHT22;2873;50.966;7.210;2022-11-12T13:40:42;24.10;96.60
5697;DHT22;2873;50.966;7.210;2022-11-12T13:48:17;23.50;96.20
5697;DHT22;2873;50.966;7.210;2022-11-12T13:50:50;23.60;96.70
5697;DHT22;2873;50.966;7.210;2022-11-12T13:53:21;23.50;96.40
5697;DHT22;2873;50.966;7.210;2022-11-12T13:55:49;23.50;96.10
5697;DHT22;2873;50.966;7.210;2022-11-12T13:58:29;23.30;96.30
5697;DHT22;2873;50.966;7.210;2022-11-12T14:00:57;23.30;96.10
5697;DHT22;2873;50.966;7.210;2022-11-12T14:03:27;23.10;96.00
5697;DHT22;2873;50.966;7.210;2022-11-12T14:05:54;22.80;96.00
5697;DHT22;2873;50.966;7.210;2022-11-12T14:11:29;22.10;95.90
5697;DHT22;2873;50.966;7.210;2022-11-12T14:14:21;21.90;96.20
5697;DHT22;2873;50.966;7.210;2022-11-12T14:16:53;21.50;96.30
5697;DHT22;2873;50.966;7.210;2022-11-12T14:22:19;20.80;96.80
5697;DHT22;2873;50.966;7.210;2022-11-12T14:24:58;20.30;96.60
5697;DHT22;2873;50.966;7.210;2022-11-12T14:32:39;19.30;97.60
5697;DHT22;2873;50.966;7.210;2022-11-12T14:40:27;18.70;98.40
5697;DHT22;2873;50.966;7.210;2022-11-12T14:42:53;18.50;98.60
5697;DHT22;2873;50.966;7.210;2022-11-12T14:45:20;18.30;99.10
5697;DHT22;2873;50.966;7.210;2022-11-12T14:47:48;17.90;99.30
5697;DHT22;2873;50.966;7.210;2022-11-12T14:50:26;17.70;99.80
5697;DHT22;2873;50.966;7.210;2022-11-12T14:53:12;17.60;99.90
5697;DHT22;2873;50.966;7.210;2022-11-12T14:55:40;17.40;99.90
5697;DHT22;2873;50.966;7.210;2022-11-12T14:58:15;17.30;99.90
5697;DHT22;2873;50.966;7.210;2022-11-12T15:00:44;17.10;99.90
5697;DHT22;2873;50.966;7.210;2022-11-12T15:03:19;17.10;99.90
5697;DHT22;2873;50.966;7.210;2022-11-12T15:05:56;17.00;99.90
5697;DHT22;2873;50.966;7.210;2022-11-12T15:08:31;16.80;99.90
5697;DHT22;2873;50.966;7.210;2022-11-12T15:13:43;16.50;99.90
5697;DHT22;2873;50.966;7.210;2022-11-12T15:16:10;16.50;99.90
5697;DHT22;2873;50.966;7.210;2022-11-12T15:18:40;16.30;99.90
5697;DHT22;2873;50.966;7.210;2022-11-12T15:23:49;16.20;99.90
5697;DHT22;2873;50.966;7.210;2022-11-12T15:26:31;16.00;99.90
5697;DHT22;2873;50.966;7.210;2022-11-12T15:29:10;15.90;99.90
5697;DHT22;2873;50.966;7.210;2022-11-12T15:31:56;15.70;99.90
5697;DHT22;2873;50.966;7.210;2022-11-12T15:34:52;15.60;99.90
5697;DHT22;2873;50.966;7.210;2022-11-12T15:39:45;15.50;99.90
5697;DHT22;2873;50.966;7.210;2022-11-12T15:44:40;15.40;99.90
5697;DHT22;2873;50.966;7.210;2022-11-12T15:47:10;15.50;99.90
5697;DHT22;2873;50.966;7.210;2022-11-12T15:49:59;15.30;99.90
5697;DHT22;2873;50.966;7.210;2022-11-12T15:52:33;15.20;99.90
5697;DHT22;2873;50.966;7.210;2022-11-12T15:54:58;15.20;99.90
5697;DHT22;2873;50.966;7.210;2022-11-12T15:57:27;15.20;99.90
5697;DHT22;2873;50.966;7.210;2022-11-12T16:00:01;15.20;99.90
5697;DHT22;2873;50.966;7.210;2022-11-12T16:02:28;15.10;99.90
5697;DHT22;2873;50.966;7.210;2022-11-12T16:04:54;15.10;99.90
5697;DHT22;2873;50.966;7.210;2022-11-12T16:07:20;15.10;99.90
5697;DHT22;2873;50.966;7.210;2022-11-12T16:09:46;15.00;99.90
5697;DHT22;2873;50.966;7.210;2022-11-12T16:12:12;14.90;99.90
5697;DHT22;2873;50.966;7.210;2022-11-12T16:14:39;14.90;99.90
5697;DHT22;2873;50.966;7.210;2022-11-12T16:17:09;14.90;99.90
5697;DHT22;2873;50.966;7.210;2022-11-12T16:19:36;14.90;99.90
5697;DHT22;2873;50.966;7.210;2022-11-12T16:22:01;14.90;99.90
5697;DHT22;2873;50.966;7.210;2022-11-12T16:24:28;14.90;99.90
5697;DHT22;2873;50.966;7.210;2022-11-12T16:26:53;14.80;99.90
5697;DHT22;2873;50.966;7.210;2022-11-12T16:29:19;14.80;99.90
5697;DHT22;2873;50.966;7.210;2022-11-12T16:31:45;14.70;99.90
5697;DHT22;2873;50.966;7.210;2022-11-12T16:34:10;14.60;99.90
5697;DHT22;2873;50.966;7.210;2022-11-12T16:36:37;14.60;99.90
5697;DHT22;2873;50.966;7.210;2022-11-12T16:39:03;14.50;99.90
5697;DHT22;2873;50.966;7.210;2022-11-12T16:41:29;14.50;99.90
5697;DHT22;2873;50.966;7.210;2022-11-12T16:43:55;14.50;99.90
5697;DHT22;2873;50.966;7.210;2022-11-12T16:46:27;14.50;99.90
5697;DHT22;2873;50.966;7.210;2022-11-12T16:48:53;14.50;99.90
5697;DHT22;2873;50.966;7.210;2022-11-12T16:51:20;14.50;99.90
5697;DHT22;2873;50.966;7.210;2022-11-12T16:53:46;14.50;99.90
5697;DHT22;2873;50.966;7.210;2022-11-12T16:56:16;14.40;99.90
5697;DHT22;2873;50.966;7.210;2022-11-12T16:58:42;14.50;99.90
5697;DHT22;2873;50.966;7.210;2022-11-12T17:01:13;14.50;99.90
5697;DHT22;2873;50.966;7.210;2022-11-12T17:03:39;14.50;99.90
5697;DHT22;2873;50.966;7.210;2022-11-12T17:06:05;14.40;99.90
5697;DHT22;2873;50.966;7.210;2022-11-12T17:08:30;14.40;99.90
5697;DHT22;2873;50.966;7.210;2022-11-12T17:10:56;14.40;99.90
5697;DHT22;2873;50.966;7.210;2022-11-12T17:13:21;14.40;99.90
5697;DHT22;2873;50.966;7.210;2022-11-12T17:15:47;14.40;99.90
5697;DHT22;2873;50.966;7.210;2022-11-12T17:18:13;14.30;99.90
5697;DHT22;2873;50.966;7.210;2022-11-12T17:20:39;14.30;99.90
5697;DHT22;2873;50.966;7.210;2022-11-12T17:23:04;14.30;99.90
5697;DHT22;2873;50.966;7.210;2022-11-12T17:25:30;14.30;99.90
5697;DHT22;2873;50.966;7.210;2022-11-12T17:27:55;14.30;99.90
5697;DHT22;2873;50.966;7.210;2022-11-12T17:30:21;14.20;99.90
5697;DHT22;2873;50.966;7.210;2022-11-12T17:32:46;14.20;99.90
5697;DHT22;2873;50.966;7.210;2022-11-12T17:35:13;14.30;99.90
5697;DHT22;2873;50.966;7.210;2022-11-12T17:37:38;14.30;99.90
5697;DHT22;2873;50.966;7.210;2022-11-12T17:40:04;14.30;99.90
5697;DHT22;2873;50.966;7.210;2022-11-12T17:42:30;14.30;99.90
5697;DHT22;2873;50.966;7.210;2022-11-12T17:44:56;14.30;99.90
5697;DHT22;2873;50.966;7.210;2022-11-12T17:47:21;14.30;99.90
5697;DHT22;2873;50.966;7.210;2022-11-12T17:49:47;14.20;99.90
5697;DHT22;2873;50.966;7.210;2022-11-12T17:52:12;14.10;99.90
5697;DHT22;2873;50.966;7.210;2022-11-12T17:54:38;14.10;99.90
5697;DHT22;2873;50.966;7.210;2022-11-12T17:57:04;14.10;99.90
5697;DHT22;2873;50.966;7.210;2022-11-12T17:59:29;14.00;99.90
5697;DHT22;2873;50.966;7.210;2022-11-12T18:01:55;14.00;99.90
5697;DHT22;2873;50.966;7.210;2022-11-12T18:04:20;13.90;99.90
5697;DHT22;2873;50.966;7.210;2022-11-12T18:06:46;13.90;99.90
5697;DHT22;2873;50.966;7.210;2022-11-12T18:09:13;13.90;99.90
5697;DHT22;2873;50.966;7.210;2022-11-12T18:11:49;14.00;99.90
5697;DHT22;2873;50.966;7.210;2022-11-12T18:14:15;14.00;99.90
5697;DHT22;2873;50.966;7.210;2022-11-12T18:16:41;13.90;99.90
5697;DHT22;2873;50.966;7.210;2022-11-12T18:19:07;14.00;99.90
5697;DHT22;2873;50.966;7.210;2022-11-12T18:21:36;13.90;99.90